Time;durP1;ratioP1;P1;durP2;ratioP2;P2;SDS_P1;SDS_P2;PMS_P1;PMS_P2;Temp;Humidity;BMP_temperature;BMP_pressure;BME280_temperature;BME280_humidity;BME280_pressure;Samples;Min_cycle;Max_cycle;Signal;HPM_P1;HPM_P2
2022/09/17 00:01:22;;;;;;;;;;;;;;;-142.75;100.00;77231.75;5010498;28;20295;-69
2022/09/17 00:03:48;;;;;;;;;;;;;;;-142.75;100.00;77223.88;5011885;28;19952;-69
2022/09/17 00:06:13;;;;;;;;;;;;;;;-142.75;100.00;77235.69;5005626;28;19996;-69
2022/09/17 00:08:39;;;;;;;;;;;;;;;-142.75;100.00;77247.50;5002829;28;19913;-70
2022/09/17 00:11:09;;;;;;;;;;;;;;;-142.75;100.00;77255.38;5003922;28;19914;-68
2022/09/17 00:13:34;;;;;;;;;;;;;;;-142.75;100.00;77249.47;5004155;28;20303;-67
2022/09/17 00:15:59;;;;;;;;;;;;;;;-142.75;100.00;77239.63;5007066;28;19918;-69
2022/09/17 00:18:24;;;;;;;;;;;;;;;-142.75;100.00;77255.38;5002100;28;19913;-69
2022/09/17 00:20:49;;;;;;;;;;;;;;;-142.75;100.00;77255.38;5001137;28;20024;-70
2022/09/17 00:23:15;;;;;;;;;;;;;;;-142.75;100.00;77249.47;4993505;28;19913;-69
2022/09/17 00:25:41;;;;;;;;;;;;;;;-142.75;100.00;77257.34;4994725;28;19914;-69
2022/09/17 00:28:07;;;;;;;;;;;;;;;-142.75;100.00;77259.31;4993146;28;19921;-69
2022/09/17 00:30:32;;;;;;;;;;;;;;;-142.75;100.00;77249.47;4993314;28;19914;-69
2022/09/17 00:32:57;;;;;;;;;;;;;;;-142.75;100.00;77263.25;4993264;28;19914;-70
2022/09/17 00:35:23;;;;;;;;;;;;;;;-142.75;100.00;77265.22;4993462;28;19992;-70
2022/09/17 00:37:48;;;;;;;;;;;;;;;-142.75;100.00;77275.06;4991757;28;19914;-69
2022/09/17 00:40:13;;;;;;;;;;;;;;;-142.75;100.00;77286.88;4991912;28;19918;-70
2022/09/17 00:42:38;;;;;;;;;;;;;;;-142.75;100.00;77298.69;4993097;28;19937;-69
2022/09/17 00:45:04;;;;;;;;;;;;;;;-142.75;100.00;77298.69;4993146;28;19920;-68
2022/09/17 00:47:31;;;;;;;;;;;;;;;-142.75;100.00;77306.56;4992772;28;20461;-69
2022/09/17 00:50:00;;;;;;;;;;;;;;;-142.75;100.00;77318.38;4993057;28;19921;-70
2022/09/17 00:52:27;;;;;;;;;;;;;;;-142.75;100.00;77312.47;4992606;28;19913;-69
2022/09/17 00:54:55;;;;;;;;;;;;;;;-142.75;100.00;77314.44;4993018;28;19914;-70
2022/09/17 00:57:21;;;;;;;;;;;;;;;-142.75;100.00;77324.28;4992679;28;19968;-69
2022/09/17 00:59:47;;;;;;;;;;;;;;;-142.75;100.00;77318.38;4991591;28;19925;-69
2022/09/17 01:02:12;;;;;;;;;;;;;;;-142.75;100.00;77314.44;4993059;28;19921;-69
2022/09/17 01:04:37;;;;;;;;;;;;;;;-142.75;100.00;77316.41;4992832;28;19929;-70
2022/09/17 01:07:02;;;;;;;;;;;;;;;-142.75;100.00;77314.44;4992565;28;19921;-69
2022/09/17 01:09:30;;;;;;;;;;;;;;;-142.75;100.00;77318.38;4992921;28;19920;-70
2022/09/17 01:12:11;;;;;;;;;;;;;;;-142.75;100.00;77322.31;4992854;28;19921;-70
2022/09/17 01:14:43;;;;;;;;;;;;;;;-142.75;100.00;77322.31;4992844;28;19921;-69
2022/09/17 01:17:28;;;;;;;;;;;;;;;-142.75;100.00;77318.38;4992522;28;19961;-71
2022/09/17 01:19:53;;;;;;;;;;;;;;;-142.75;100.00;77312.47;4992796;28;20443;-70
2022/09/17 01:22:29;;;;;;;;;;;;;;;-142.75;100.00;77298.69;4992780;28;19945;-70
2022/09/17 01:25:09;;;;;;;;;;;;;;;-142.75;100.00;77306.56;4992698;28;19948;-69
2022/09/17 01:27:45;;;;;;;;;;;;;;;-142.75;100.00;77308.53;4991114;28;19914;-69
2022/09/17 01:30:17;;;;;;;;;;;;;;;-142.75;100.00;77304.59;4991450;28;19921;-70
2022/09/17 01:33:05;;;;;;;;;;;;;;;-142.75;100.00;77318.38;4992673;28;19914;-69
2022/09/17 01:35:30;;;;;;;;;;;;;;;-142.75;100.00;77320.34;4987039;28;19988;-70
2022/09/17 01:38:05;;;;;;;;;;;;;;;-142.75;100.00;77326.25;4992330;28;20378;-70
2022/09/17 01:40:31;;;;;;;;;;;;;;;-142.75;100.00;77320.34;4992546;28;20338;-68
2022/09/17 01:43:00;;;;;;;;;;;;;;;-142.75;100.00;77314.44;4992499;28;19917;-69
2022/09/17 01:45:38;;;;;;;;;;;;;;;-142.75;100.00;77304.59;4992614;28;20008;-70
2022/09/17 01:48:29;;;;;;;;;;;;;;;-142.75;100.00;77300.66;4991078;28;20371;-67
2022/09/17 01:50:57;;;;;;;;;;;;;;;-142.75;100.00;77306.56;4988191;28;20026;-69
2022/09/17 01:53:27;;;;;;;;;;;;;;;-142.75;100.00;77308.53;4991152;28;19920;-70
2022/09/17 01:55:53;;;;;;;;;;;;;;;-142.75;100.00;77330.19;4992425;28;19913;-70
2022/09/17 01:58:25;;;;;;;;;;;;;;;-142.75;100.00;77349.88;4992151;28;20556;-70
2022/09/17 02:00:54;;;;;;;;;;;;;;;-142.75;100.00;77367.59;4992318;28;19921;-69
2022/09/17 02:03:26;;;;;;;;;;;;;;;-142.75;100.00;77381.38;4992216;28;19997;-69
2022/09/17 02:05:55;;;;;;;;;;;;;;;-142.75;100.00;77379.41;4991133;28;19914;-70
2022/09/17 02:08:22;;;;;;;;;;;;;;;-142.75;100.00;77399.09;4991994;28;20013;-69
2022/09/17 02:10:51;;;;;;;;;;;;;;;-142.75;100.00;77410.91;4990984;28;20299;-69
2022/09/17 02:13:26;;;;;;;;;;;;;;;-142.75;100.00;77406.97;4992284;28;19913;-70
2022/09/17 02:15:56;;;;;;;;;;;;;;;-142.75;100.00;77401.06;4992329;28;19921;-70
2022/09/17 02:18:25;;;;;;;;;;;;;;;-142.75;100.00;77410.91;4994669;28;19952;-70
2022/09/17 02:20:55;;;;;;;;;;;;;;;-142.75;100.00;77408.94;4995626;28;19973;-69
2022/09/17 02:23:25;;;;;;;;;;;;;;;-142.75;100.00;77418.78;4995591;28;19914;-70
2022/09/17 02:26:03;;;;;;;;;;;;;;;-142.75;100.00;77408.94;4995882;28;19928;-69
2022/09/17 02:28:36;;;;;;;;;;;;;;;-142.75;100.00;77401.06;4995436;28;19914;-70
2022/09/17 02:31:01;;;;;;;;;;;;;;;-142.75;100.00;77387.28;4994583;28;20350;-70
2022/09/17 02:33:27;;;;;;;;;;;;;;;-142.75;100.00;77395.16;4995635;28;19918;-70
2022/09/17 02:35:53;;;;;;;;;;;;;;;-142.75;100.00;77391.22;4994316;28;20416;-70
2022/09/17 02:38:23;;;;;;;;;;;;;;;-142.75;100.00;77385.31;4995198;28;19914;-68
2022/09/17 02:40:53;;;;;;;;;;;;;;;-142.75;100.00;77375.47;4995328;28;20017;-69
2022/09/17 02:43:21;;;;;;;;;;;;;;;-142.75;100.00;77381.38;4995356;28;19977;-69
2022/09/17 02:46:11;;;;;;;;;;;;;;;-142.75;100.00;77381.38;4995321;28;19914;-69
2022/09/17 02:48:55;;;;;;;;;;;;;;;-142.75;100.00;77377.44;4993856;28;19921;-70
2022/09/17 02:51:55;;;;;;;;;;;;;;;-142.75;100.00;77377.44;4994003;28;19953;-69
2022/09/17 02:54:32;;;;;;;;;;;;;;;-142.75;100.00;77389.25;4953918;29;19915;-69
2022/09/17 02:56:57;;;;;;;;;;;;;;;-142.75;100.00;77389.25;4985726;28;19922;-69
2022/09/17 02:59:41;;;;;;;;;;;;;;;-142.75;100.00;77371.53;4995083;28;20364;-69
2022/09/17 03:02:11;;;;;;;;;;;;;;;-142.75;100.00;77373.50;4995083;28;19949;-70
2022/09/17 03:04:37;;;;;;;;;;;;;;;-142.75;100.00;77377.44;4994908;28;19926;-69
2022/09/17 03:07:07;;;;;;;;;;;;;;;-142.75;100.00;77377.44;4994544;28;20427;-70
2022/09/17 03:09:33;;;;;;;;;;;;;;;-142.75;100.00;77383.34;4994955;28;19921;-70
2022/09/17 03:11:58;;;;;;;;;;;;;;;-142.75;100.00;77389.25;4994879;28;19913;-70
2022/09/17 03:14:23;;;;;;;;;;;;;;;-142.75;100.00;77383.34;4994846;28;19914;-69
2022/09/17 03:16:48;;;;;;;;;;;;;;;-142.75;100.00;77369.56;4994448;28;19921;-70
2022/09/17 03:19:13;;;;;;;;;;;;;;;-142.75;100.00;77363.66;4994633;28;19917;-67
2022/09/17 03:21:39;;;;;;;;;;;;;;;-142.75;100.00;77363.66;4993364;28;20013;-67
2022/09/17 03:24:04;;;;;;;;;;;;;;;-142.75;100.00;77357.75;4994542;28;19992;-67
2022/09/17 03:26:29;;;;;;;;;;;;;;;-142.75;100.00;77357.75;4994473;28;19914;-67
2022/09/17 03:28:55;;;;;;;;;;;;;;;-142.75;100.00;77365.63;4993284;28;19914;-67
2022/09/17 03:31:20;;;;;;;;;;;;;;;-142.75;100.00;77361.69;4994519;28;20388;-67
2022/09/17 03:33:45;;;;;;;;;;;;;;;-142.75;100.00;77365.63;4993060;28;19914;-67
2022/09/17 03:36:10;;;;;;;;;;;;;;;-142.75;100.00;77342.00;4994398;28;19918;-67
2022/09/17 03:38:37;;;;;;;;;;;;;;;-142.75;100.00;77349.88;4992776;28;20273;-67
2022/09/17 03:41:05;;;;;;;;;;;;;;;-142.75;100.00;77342.00;4994250;28;19918;-67
2022/09/17 03:43:30;;;;;;;;;;;;;;;-142.75;100.00;77349.88;4994501;28;20354;-67
2022/09/17 03:45:55;;;;;;;;;;;;;;;-142.75;100.00;77353.81;4994234;28;19914;-67
2022/09/17 03:48:21;;;;;;;;;;;;;;;-142.75;100.00;77343.97;4993844;28;19914;-67
2022/09/17 03:50:46;;;;;;;;;;;;;;;-142.75;100.00;77349.88;4994079;28;19949;-67
2022/09/17 03:53:11;;;;;;;;;;;;;;;-142.75;100.00;77336.09;4992660;28;19960;-68
2022/09/17 03:55:37;;;;;;;;;;;;;;;-142.75;100.00;77332.16;4994140;28;19918;-67
2022/09/17 03:58:02;;;;;;;;;;;;;;;-142.75;100.00;77330.19;4992484;28;19921;-67
2022/09/17 04:00:27;;;;;;;;;;;;;;;-142.75;100.00;77334.13;4992625;28;19968;-67
2022/09/17 04:02:52;;;;;;;;;;;;;;;-142.75;100.00;77336.09;4992473;28;19991;-67
2022/09/17 04:05:18;;;;;;;;;;;;;;;-142.75;100.00;77328.22;4993763;28;19917;-67
2022/09/17 04:07:43;;;;;;;;;;;;;;;-142.75;100.00;77336.09;4991833;28;19918;-67
2022/09/17 04:10:08;;;;;;;;;;;;;;;-142.75;100.00;77349.88;4993771;28;20498;-67
2022/09/17 04:12:34;;;;;;;;;;;;;;;-142.75;100.00;77342.00;4993672;28;20362;-67
2022/09/17 04:14:59;;;;;;;;;;;;;;;-142.75;100.00;77349.88;4993702;28;19914;-67
2022/09/17 04:17:24;;;;;;;;;;;;;;;-142.75;100.00;77343.97;4993383;28;19920;-67
2022/09/17 04:19:49;;;;;;;;;;;;;;;-142.75;100.00;77338.06;4992108;28;20269;-67
2022/09/17 04:22:14;;;;;;;;;;;;;;;-142.75;100.00;77330.19;4993557;28;19913;-67
2022/09/17 04:24:39;;;;;;;;;;;;;;;-142.75;100.00;77340.03;4992199;28;19914;-67
2022/09/17 04:27:05;;;;;;;;;;;;;;;-142.75;100.00;77338.06;4993181;28;19913;-67
2022/09/17 04:29:30;;;;;;;;;;;;;;;-142.75;100.00;77328.22;4993409;28;19913;-67
2022/09/17 04:31:55;;;;;;;;;;;;;;;-142.75;100.00;77338.06;4992208;28;19914;-67
2022/09/17 04:34:20;;;;;;;;;;;;;;;-142.75;100.00;77330.19;4993296;28;19914;-67
2022/09/17 04:36:45;;;;;;;;;;;;;;;-142.75;100.00;77334.13;4992990;28;20375;-67
2022/09/17 04:39:11;;;;;;;;;;;;;;;-142.75;100.00;77349.88;4993212;28;20399;-67
2022/09/17 04:41:36;;;;;;;;;;;;;;;-142.75;100.00;77353.81;4993071;28;20002;-67
2022/09/17 04:44:01;;;;;;;;;;;;;;;-142.75;100.00;77345.94;4991863;28;19913;-67
2022/09/17 04:46:26;;;;;;;;;;;;;;;-142.75;100.00;77342.00;4993034;28;20388;-64
2022/09/17 04:48:51;;;;;;;;;;;;;;;-142.75;100.00;77357.75;4991648;28;19921;-67
2022/09/17 04:51:17;;;;;;;;;;;;;;;-142.75;100.00;77389.25;4991770;28;20036;-67
2022/09/17 04:53:42;;;;;;;;;;;;;;;-142.75;100.00;77405.00;4993012;28;19914;-67
2022/09/17 04:56:07;;;;;;;;;;;;;;;-142.75;100.00;77405.00;4993149;28;19988;-67
2022/09/17 04:58:32;;;;;;;;;;;;;;;-142.75;100.00;77403.03;4992711;28;19914;-67
2022/09/17 05:00:57;;;;;;;;;;;;;;;-142.75;100.00;77403.03;4991652;28;20016;-67
2022/09/17 05:03:23;;;;;;;;;;;;;;;-142.75;100.00;77406.97;4992673;28;19925;-67
2022/09/17 05:05:48;;;;;;;;;;;;;;;-142.75;100.00;77405.00;4991659;28;19918;-67
2022/09/17 05:08:13;;;;;;;;;;;;;;;-142.75;100.00;77418.78;4992656;28;19914;-67
2022/09/17 05:10:38;;;;;;;;;;;;;;;-142.75;100.00;77408.94;4993905;28;19929;-67
2022/09/17 05:13:03;;;;;;;;;;;;;;;-142.75;100.00;77434.53;5016873;28;19960;-67
2022/09/17 05:15:29;;;;;;;;;;;;;;;-142.75;100.00;77438.47;5004145;28;19964;-67
2022/09/17 05:17:54;;;;;;;;;;;;;;;-142.75;100.00;77440.44;5037023;22;19925;-67
2022/09/17 05:20:19;;;;;;;;;;;;;;;-142.75;100.00;77446.34;5030510;28;19924;-70
2022/09/17 05:22:48;;;;;;;;;;;;;;;-142.75;100.00;77440.44;5031894;28;19913;-69
2022/09/17 05:25:15;;;;;;;;;;;;;;;-142.75;100.00;77436.50;5032424;28;19917;-70
2022/09/17 05:27:40;;;;;;;;;;;;;;;-142.75;100.00;77444.38;5031895;28;19975;-70
2022/09/17 05:30:07;;;;;;;;;;;;;;;-142.75;100.00;77432.56;5032310;28;20367;-69
2022/09/17 05:32:32;;;;;;;;;;;;;;;-142.75;100.00;77442.41;5032273;28;19967;-70
2022/09/17 05:34:57;;;;;;;;;;;;;;;-142.75;100.00;77440.44;5031779;28;19917;-69
2022/09/17 05:37:22;;;;;;;;;;;;;;;-142.75;100.00;77444.38;5031523;28;19921;-70
2022/09/17 05:39:47;;;;;;;;;;;;;;;-142.75;100.00;77430.59;5030669;28;19926;-70
2022/09/17 05:42:13;;;;;;;;;;;;;;;-142.75;100.00;77424.69;5031999;28;19913;-70
2022/09/17 05:44:38;;;;;;;;;;;;;;;-142.75;100.00;77416.81;5031915;28;19967;-70
2022/09/17 05:47:03;;;;;;;;;;;;;;;-142.75;100.00;77410.91;5031626;28;20354;-69
2022/09/17 05:49:28;;;;;;;;;;;;;;;-142.75;100.00;77414.84;5031804;28;19920;-69
2022/09/17 05:51:54;;;;;;;;;;;;;;;-142.75;100.00;77406.97;5032412;28;20280;-70
2022/09/17 05:54:19;;;;;;;;;;;;;;;-142.75;100.00;77405.00;5035666;28;19913;-69
2022/09/17 05:56:44;;;;;;;;;;;;;;;-142.75;100.00;77401.06;5035379;28;19913;-70
2022/09/17 05:59:09;;;;;;;;;;;;;;;-142.75;100.00;77412.88;5035489;28;19944;-70
2022/09/17 06:01:34;;;;;;;;;;;;;;;-142.75;100.00;77410.91;5035615;28;19956;-69
2022/09/17 06:04:03;;;;;;;;;;;;;;;-142.75;100.00;77403.03;5035461;28;20290;-70
2022/09/17 06:06:29;;;;;;;;;;;;;;;-142.75;100.00;77395.16;5035238;28;19917;-69
2022/09/17 06:08:54;;;;;;;;;;;;;;;-142.75;100.00;77397.13;5035221;28;19913;-70
2022/09/17 06:11:20;;;;;;;;;;;;;;;-142.75;100.00;77403.03;5035397;28;19914;-69
2022/09/17 06:13:45;;;;;;;;;;;;;;;-142.75;100.00;77414.84;5035318;28;19924;-69
2022/09/17 06:16:10;;;;;;;;;;;;;;;-142.75;100.00;77428.63;5034035;28;20383;-70
2022/09/17 06:18:35;;;;;;;;;;;;;;;-142.75;100.00;77452.25;5034789;28;19921;-70
2022/09/17 06:21:01;;;;;;;;;;;;;;;-142.75;100.00;77454.25;5035127;28;19950;-70
2022/09/17 06:23:27;;;;;;;;;;;;;;;-142.75;100.00;77452.25;5035165;28;19917;-70
2022/09/17 06:25:54;;;;;;;;;;;;;;;-142.75;100.00;77456.22;5035152;28;19924;-70
2022/09/17 06:28:19;;;;;;;;;;;;;;;-142.75;100.00;77446.34;5034771;28;20008;-70
2022/09/17 06:30:44;;;;;;;;;;;;;;;-142.75;100.00;77446.34;5035141;28;19956;-68
2022/09/17 06:33:10;;;;;;;;;;;;;;;-142.75;100.00;77424.69;5033783;28;19913;-68
2022/09/17 06:35:35;;;;;;;;;;;;;;;-142.75;100.00;77416.81;5034876;28;19996;-68
2022/09/17 06:38:03;;;;;;;;;;;;;;;-142.75;100.00;77401.06;5034532;28;20290;-68
2022/09/17 06:40:28;;;;;;;;;;;;;;;-142.75;100.00;77387.28;5034799;28;19917;-68
2022/09/17 06:42:55;;;;;;;;;;;;;;;-142.75;100.00;77381.38;5033664;28;19913;-68
2022/09/17 06:45:21;;;;;;;;;;;;;;;-142.75;100.00;77377.44;5034714;28;19913;-68
2022/09/17 06:47:46;;;;;;;;;;;;;;;-142.75;100.00;77385.31;5034392;28;20406;-68
2022/09/17 06:50:11;;;;;;;;;;;;;;;-142.75;100.00;77389.25;5034637;28;19920;-68
2022/09/17 06:52:37;;;;;;;;;;;;;;;-142.75;100.00;77410.91;5034610;28;19913;-67
2022/09/17 06:55:02;;;;;;;;;;;;;;;-142.75;100.00;77410.91;5034719;28;19917;-67
2022/09/17 06:57:27;;;;;;;;;;;;;;;-142.75;100.00;77422.72;5034409;28;19913;-67
2022/09/17 06:59:53;;;;;;;;;;;;;;;-142.75;100.00;77416.81;5034560;28;19917;-68
2022/09/17 07:02:18;;;;;;;;;;;;;;;-142.75;100.00;77403.03;5034495;28;20024;-68
2022/09/17 07:04:43;;;;;;;;;;;;;;;-142.75;100.00;77397.13;5034421;28;19913;-68
2022/09/17 07:07:09;;;;;;;;;;;;;;;-142.75;100.00;77379.41;5032817;28;19917;-68
2022/09/17 07:09:34;;;;;;;;;;;;;;;-142.75;100.00;77369.56;5034630;28;20387;-68
2022/09/17 07:11:59;;;;;;;;;;;;;;;-142.75;100.00;77371.53;5033252;28;20599;-68
2022/09/17 07:14:24;;;;;;;;;;;;;;;-142.75;100.00;77338.06;5034511;28;20371;-68
2022/09/17 07:16:51;;;;;;;;;;;;;;;-142.75;100.00;77286.88;5033764;28;19967;-67
2022/09/17 07:19:16;;;;;;;;;;;;;;;-142.75;100.00;77216.00;5034180;28;19921;-68
2022/09/17 07:21:41;;;;;;;;;;;;;;;-142.75;100.00;77184.50;5034055;28;19913;-69
2022/09/17 07:24:07;;;;;;;;;;;;;;;-142.75;100.00;77149.06;5034196;28;19913;-68
2022/09/17 07:26:32;;;;;;;;;;;;;;;-142.75;100.00;77147.09;5033759;28;19913;-68
2022/09/17 07:28:57;;;;;;;;;;;;;;;-142.75;100.00;77188.44;5034022;28;19939;-68
2022/09/17 07:31:22;;;;;;;;;;;;;;;-142.75;100.00;77204.19;5034040;28;20394;-68
2022/09/17 07:33:47;;;;;;;;;;;;;;;-142.75;100.00;77219.94;5033913;28;19913;-68
2022/09/17 07:36:14;;;;;;;;;;;;;;;-142.75;100.00;77219.94;5033799;28;19920;-68
2022/09/17 07:38:39;;;;;;;;;;;;;;;-142.75;100.00;77190.41;5032220;28;20365;-69
2022/09/17 07:41:05;;;;;;;;;;;;;;;-142.75;100.00;77153.00;5033761;28;20012;-68
2022/09/17 07:43:32;;;;;;;;;;;;;;;-142.75;100.00;77099.84;5033718;28;20294;-69
2022/09/17 07:45:58;;;;;;;;;;;;;;;-142.75;100.00;77050.63;5033800;28;19999;-68
2022/09/17 07:48:23;;;;;;;;;;;;;;;-142.75;100.00;77013.22;5033418;28;19916;-68
2022/09/17 07:50:49;;;;;;;;;;;;;;;-142.75;100.00;76964.00;5033245;28;19916;-68
2022/09/17 07:53:14;;;;;;;;;;;;;;;-142.75;100.00;76904.94;5032300;28;19913;-68
2022/09/17 07:55:39;;;;;;;;;;;;;;;-142.75;100.00;76912.81;5032374;28;20375;-68
2022/09/17 07:58:04;;;;;;;;;;;;;;;-142.75;100.00;76897.06;5033276;28;20016;-67
2022/09/17 08:00:30;;;;;;;;;;;;;;;-142.75;100.00;76853.75;5033455;28;19956;-66
2022/09/17 08:02:55;;;;;;;;;;;;;;;-142.75;100.00;76838.00;5033155;28;19924;-67
2022/09/17 08:05:21;;;;;;;;;;;;;;;-142.75;100.00;76901.00;5033149;28;19913;-68
2022/09/17 08:07:54;;;;;;;;;;;;;;;-142.75;100.00;76942.34;5032438;28;19917;-68
2022/09/17 08:10:21;;;;;;;;;;;;;;;-142.75;100.00;76973.84;5026321;28;19924;-68
2022/09/17 08:12:53;;;;;;;;;;;;;;;-142.75;100.00;76989.59;5022386;28;19921;-68
2022/09/17 08:15:18;;;;;;;;;;;;;;;-142.75;100.00;76983.69;5028961;28;19921;-68
2022/09/17 08:17:44;;;;;;;;;;;;;;;-142.75;100.00;76971.88;5023403;28;19992;-68
2022/09/17 08:20:09;;;;;;;;;;;;;;;-142.75;100.00;76928.56;5025360;28;19921;-68
2022/09/17 08:22:34;;;;;;;;;;;;;;;-142.75;100.00;76871.47;5025080;28;19920;-67
2022/09/17 08:25:00;;;;;;;;;;;;;;;-142.75;100.00;76802.56;5029481;28;19963;-67
2022/09/17 08:27:25;;;;;;;;;;;;;;;-142.75;100.00;76780.94;5023980;28;20252;-67
2022/09/17 08:29:50;;;;;;;;;;;;;;;-142.75;100.00;76739.59;5029999;28;19913;-67
2022/09/17 08:32:15;;;;;;;;;;;;;;;-142.75;100.00;76700.22;5020457;28;19917;-68
2022/09/17 08:34:40;;;;;;;;;;;;;;;-142.75;100.00;76668.72;5030058;28;19917;-68
2022/09/17 08:37:05;;;;;;;;;;;;;;;-142.75;100.00;76706.13;5026490;28;19917;-67
2022/09/17 08:39:31;;;;;;;;;;;;;;;-142.75;100.00;76857.69;5025860;28;19961;-67
2022/09/17 08:42:17;;;;;;;;;;;;;;;-142.75;100.00;76920.69;5018369;28;19924;-68
2022/09/17 08:44:44;;;;;;;;;;;;;;;-142.75;100.00;76964.00;5003206;28;20306;-67
2022/09/17 08:47:13;;;;;;;;;;;;;;;-142.75;100.00;77003.38;5016702;28;19933;-67
2022/09/17 08:49:42;;;;;;;;;;;;;;;-142.75;100.00;77058.50;5016959;28;20334;-69
2022/09/17 08:52:16;;;;;;;;;;;;;;;-142.75;100.00;77013.22;5015764;28;20383;-69
2022/09/17 08:54:44;;;;;;;;;;;;;;;-142.75;100.00;76962.03;5017895;28;19917;-68
2022/09/17 08:57:28;;;;;;;;;;;;;;;-142.75;100.00;76934.47;5018820;28;19922;-69
2022/09/17 08:59:53;;;;;;;;;;;;;;;-142.75;100.00;76914.78;5030600;28;20416;-67
2022/09/17 09:02:19;;;;;;;;;;;;;;;-142.75;100.00;76849.81;5015111;28;19914;-68
2022/09/17 09:05:01;;;;;;;;;;;;;;;-142.75;100.00;76794.69;5016917;28;19913;-69
2022/09/17 09:07:28;;;;;;;;;;;;;;;-142.75;100.00;76759.28;5016735;28;19921;-68
2022/09/17 09:10:03;;;;;;;;;;;;;;;-142.75;100.00;76700.22;5013929;28;19924;-68
2022/09/17 09:12:30;;;;;;;;;;;;;;;-142.75;100.00;76668.72;5016088;28;20330;-68
2022/09/17 09:14:59;;;;;;;;;;;;;;;-142.75;100.00;76652.97;5026148;28;19987;-67
2022/09/17 09:17:27;;;;;;;;;;;;;;;-142.75;100.00;76611.63;5030845;28;19917;-68
2022/09/17 09:19:53;;;;;;;;;;;;;;;-142.75;100.00;76613.59;5030104;28;19966;-69
2022/09/17 09:22:33;;;;;;;;;;;;;;;-142.75;100.00;76566.34;5028185;28;19917;-68
2022/09/17 09:25:03;;;;;;;;;;;;;;;-142.75;100.00;76568.31;5027037;28;19920;-68
2022/09/17 09:27:35;;;;;;;;;;;;;;;-142.75;100.00;76639.19;5033101;28;19913;-68
2022/09/17 09:30:03;;;;;;;;;;;;;;;-142.75;100.00;76723.84;5035770;28;19913;-68
2022/09/17 09:32:28;;;;;;;;;;;;;;;-142.75;100.00;76757.31;5035763;28;20323;-67
2022/09/17 09:34:54;;;;;;;;;;;;;;;-142.75;100.00;76780.94;5035712;28;19917;-68
2022/09/17 09:37:22;;;;;;;;;;;;;;;-142.75;100.00;76755.34;5035745;28;19967;-69
2022/09/17 09:39:49;;;;;;;;;;;;;;;-142.75;100.00;76706.13;5035948;28;19917;-67
2022/09/17 09:42:44;;;;;;;;;;;;;;;-142.75;100.00;76729.75;5036002;28;19920;-67
2022/09/17 09:45:12;;;;;;;;;;;;;;;-142.75;100.00;76786.84;5026958;28;19952;-67
2022/09/17 09:47:43;;;;;;;;;;;;;;;-142.75;100.00;76822.25;5035846;28;19917;-67
2022/09/17 09:50:37;;;;;;;;;;;;;;;-142.75;100.00;76865.56;5035982;28;19913;-67
2022/09/17 09:53:15;;;;;;;;;;;;;;;-142.75;100.00;76958.09;5035238;28;19917;-67
2022/09/17 09:55:48;;;;;;;;;;;;;;;-142.75;100.00;76932.50;5034678;28;19920;-67
2022/09/17 09:58:32;;;;;;;;;;;;;;;-142.75;100.00;76906.91;5033555;28;20493;-67
2022/09/17 10:00:58;;;;;;;;;;;;;;;-142.75;100.00;76857.69;5035618;28;19924;-68
2022/09/17 10:03:26;;;;;;;;;;;;;;;-142.75;100.00;76814.38;5035245;28;19999;-67
2022/09/17 10:05:53;;;;;;;;;;;;;;;-142.75;100.00;76808.50;5035369;28;19913;-68
2022/09/17 10:08:18;;;;;;;;;;;;;;;-142.75;100.00;76806.50;5035151;28;19913;-67
2022/09/17 10:10:57;;;;;;;;;;;;;;;-142.75;100.00;76784.88;5035548;28;19913;-67
2022/09/17 10:13:23;;;;;;;;;;;;;;;-142.75;100.00;76672.66;5035048;28;19917;-67
2022/09/17 10:15:48;;;;;;;;;;;;;;;-142.75;100.00;76593.91;5034453;28;20000;-67
2022/09/17 10:18:18;;;;;;;;;;;;;;;-142.75;100.00;76530.91;5034296;28;19917;-67
2022/09/17 10:20:53;;;;;;;;;;;;;;;-142.75;100.00;76487.63;5034547;28;20006;-67
2022/09/17 10:23:20;;;;;;;;;;;;;;;-142.75;100.00;76570.28;5034183;28;20275;-66
2022/09/17 10:25:45;;;;;;;;;;;;;;;-142.75;100.00;76719.91;5035181;28;19992;-67
2022/09/17 10:28:23;;;;;;;;;;;;;;;-142.75;100.00;76782.91;5034446;28;19940;-68
2022/09/17 10:31:17;;;;;;;;;;;;;;;-142.75;100.00;76751.41;5034494;28;19928;-68
2022/09/17 10:33:56;;;;;;;;;;;;;;;-142.75;100.00;76676.59;5024091;28;19917;-68
2022/09/17 10:36:57;;;;;;;;;;;;;;;-142.75;100.00;76702.19;5032821;28;19913;-67
2022/09/17 10:39:47;;;;;;;;;;;;;;;-142.75;100.00;76757.31;4992519;28;20029;-68
2022/09/17 10:42:17;;;;;;;;;;;;;;;-142.75;100.00;76826.19;5033154;28;19920;-68
2022/09/17 10:44:56;;;;;;;;;;;;;;;-142.75;100.00;76812.41;5034308;28;20383;-67
2022/09/17 10:47:34;;;;;;;;;;;;;;;-142.75;100.00;76698.25;5034394;28;19913;-68
2022/09/17 10:50:02;;;;;;;;;;;;;;;-142.75;100.00;76635.25;5034476;28;19917;-68
2022/09/17 10:52:30;;;;;;;;;;;;;;;-142.75;100.00;76546.66;5034780;28;19913;-69
2022/09/17 10:55:15;;;;;;;;;;;;;;;-142.75;100.00;76489.59;5034529;28;19917;-69
2022/09/17 10:57:59;;;;;;;;;;;;;;;-142.75;100.00;76475.81;5034199;28;20418;-68
2022/09/17 11:00:27;;;;;;;;;;;;;;;-142.75;100.00;76434.47;5034307;28;20350;-69
2022/09/17 11:03:04;;;;;;;;;;;;;;;-142.75;100.00;76426.59;5034462;28;19913;-68
2022/09/17 11:05:48;;;;;;;;;;;;;;;-142.75;100.00;76475.81;5034530;28;19913;-69
2022/09/17 11:08:13;;;;;;;;;;;;;;;-142.75;100.00;76538.78;5033976;28;19975;-69
2022/09/17 11:10:51;;;;;;;;;;;;;;;-142.75;100.00;76588.00;5034180;28;20379;-69
2022/09/17 11:13:35;;;;;;;;;;;;;;;-142.75;100.00;76546.66;5034233;28;19917;-69
2022/09/17 11:16:13;;;;;;;;;;;;;;;-142.75;100.00;76473.84;5032999;28;19913;-69
2022/09/17 11:18:39;;;;;;;;;;;;;;;-142.75;92.86;76426.59;5055964;22;20418;-68
2022/09/17 11:21:19;;;;;;;;;;;;;;;-142.75;87.58;76387.22;5031057;28;20295;-66
2022/09/17 11:23:53;;;;;;;;;;;;;;;-142.75;82.54;76359.66;5034029;28;20363;-68
2022/09/17 11:26:25;;;;;;;;;;;;;;;-142.75;80.02;76340.00;5032670;28;19921;-67
2022/09/17 11:28:55;;;;;;;;;;;;;;;-142.75;86.97;76300.63;5033612;28;19913;-68
2022/09/17 11:31:30;;;;;;;;;;;;;;;-142.75;85.30;76227.78;5033899;28;20008;-68
2022/09/17 11:34:14;;;;;;;;;;;;;;;-142.75;77.04;76221.88;5033825;28;19920;-68
2022/09/17 11:36:51;;;;;;;;;;;;;;;-142.75;74.35;76255.34;5033547;28;19953;-68
2022/09/17 11:39:37;;;;;;;;;;;;;;;-142.75;74.97;76286.84;5033643;28;20617;-68
2022/09/17 11:42:06;;;;;;;;;;;;;;;-142.75;78.60;76341.97;5033303;28;19967;-68
2022/09/17 11:44:37;;;;;;;;;;;;;;;-142.75;79.93;76412.81;5033587;28;20509;-68
2022/09/17 11:47:03;;;;;;;;;;;;;;;-142.75;86.46;76493.53;5033132;28;19913;-68
2022/09/17 11:49:41;;;;;;;;;;;;;;;-142.75;88.27;76546.66;5032506;28;19967;-66
2022/09/17 11:52:11;;;;;;;;;;;;;;;-142.75;85.77;76485.66;5033548;28;19917;-68
2022/09/17 11:54:39;;;;;;;;;;;;;;;-142.75;87.08;76487.63;5032295;28;19913;-67
2022/09/17 11:57:04;;;;;;;;;;;;;;;-142.75;86.00;76530.91;5031815;28;19917;-68
2022/09/17 11:59:38;;;;;;;;;;;;;;;-142.75;85.59;76566.34;5032114;28;19924;-67
2022/09/17 12:02:13;;;;;;;;;;;;;;;-142.75;91.40;76660.84;5033330;28;20424;-68
2022/09/17 12:04:42;;;;;;;;;;;;;;;-142.75;100.00;76751.41;5033403;28;19917;-69
2022/09/17 12:07:26;;;;;;;;;;;;;;;-142.75;100.00;76794.69;5031638;28;20008;-69
2022/09/17 12:10:10;;;;;;;;;;;;;;;-142.75;100.00;76670.69;5032157;28;19913;-69
2022/09/17 12:12:37;;;;;;;;;;;;;;;-142.75;100.00;76556.50;5033236;28;19937;-69
2022/09/17 12:15:06;;;;;;;;;;;;;;;-142.75;100.00;76511.25;5033373;28;19956;-68
2022/09/17 12:17:41;;;;;;;;;;;;;;;-142.75;100.00;76544.69;5032610;28;19917;-69
2022/09/17 12:20:15;;;;;;;;;;;;;;;-142.75;97.10;76550.59;5033704;28;20116;-68
2022/09/17 12:22:42;;;;;;;;;;;;;;;-142.75;98.77;76548.63;5031865;28;19917;-68
2022/09/17 12:25:13;;;;;;;;;;;;;;;-142.75;100.00;76479.75;5032984;28;20337;-65
2022/09/17 12:27:41;;;;;;;;;;;;;;;-142.75;80.72;76436.44;5032580;28;20422;-68